sensor_id;sensor_type;location;lat;lon;timestamp;pressure;altitude;pressure_sealevel;temperature;humidity
40948;BME280;49382;-25.924;28.194;2023-03-31T00:02:16;85157.09;;;19.85;36.45
40948;BME280;49382;-25.924;28.194;2023-03-31T00:04:43;85161.73;;;21.50;34.40
40948;BME280;49382;-25.924;28.194;2023-03-31T00:07:08;85159.98;;;20.99;34.25
40948;BME280;49382;-25.924;28.194;2023-03-31T00:09:33;85160.71;;;21.87;32.98
40948;BME280;49382;-25.924;28.194;2023-03-31T00:11:59;85160.43;;;21.61;33.35
40948;BME280;49382;-25.924;28.194;2023-03-31T00:14:25;85163.81;;;21.96;32.46
40948;BME280;49382;-25.924;28.194;2023-03-31T00:16:51;85162.78;;;21.85;32.98
40948;BME280;49382;-25.924;28.194;2023-03-31T00:19:17;85164.17;;;20.54;34.32
40948;BME280;49382;-25.924;28.194;2023-03-31T00:21:42;85162.66;;;20.67;33.99
40948;BME280;49382;-25.924;28.194;2023-03-31T00:24:10;85160.57;;;20.82;34.91
40948;BME280;49382;-25.924;28.194;2023-03-31T00:26:34;85159.56;;;20.62;36.92
40948;BME280;49382;-25.924;28.194;2023-03-31T00:28:58;85161.09;;;20.88;37.19
40948;BME280;49382;-25.924;28.194;2023-03-31T00:31:23;85159.22;;;21.22;35.17
40948;BME280;49382;-25.924;28.194;2023-03-31T00:33:49;85159.14;;;20.49;36.77
40948;BME280;49382;-25.924;28.194;2023-03-31T00:36:15;85164.16;;;20.58;37.02
40948;BME280;49382;-25.924;28.194;2023-03-31T00:38:40;85169.49;;;21.05;36.05
40948;BME280;49382;-25.924;28.194;2023-03-31T00:41:06;85170.77;;;20.74;34.49
40948;BME280;49382;-25.924;28.194;2023-03-31T00:43:34;85179.40;;;19.88;35.34
40948;BME280;49382;-25.924;28.194;2023-03-31T00:46:04;85181.85;;;19.68;35.80
40948;BME280;49382;-25.924;28.194;2023-03-31T00:48:23;85187.27;;;20.02;35.96
40948;BME280;49382;-25.924;28.194;2023-03-31T00:50:53;85189.35;;;19.89;35.79
40948;BME280;49382;-25.924;28.194;2023-03-31T00:53:17;85191.79;;;19.00;37.93
40948;BME280;49382;-25.924;28.194;2023-03-31T00:55:43;85197.73;;;20.45;35.86
40948;BME280;49382;-25.924;28.194;2023-03-31T00:58:08;85197.70;;;20.64;35.37
40948;BME280;49382;-25.924;28.194;2023-03-31T01:00:33;85199.01;;;18.37;38.38
40948;BME280;49382;-25.924;28.194;2023-03-31T01:03:02;85196.26;;;20.42;35.72
40948;BME280;49382;-25.924;28.194;2023-03-31T01:05:28;85192.43;;;20.79;36.43
40948;BME280;49382;-25.924;28.194;2023-03-31T01:07:52;85188.81;;;20.81;35.31
40948;BME280;49382;-25.924;28.194;2023-03-31T01:10:16;85183.48;;;20.65;36.43
40948;BME280;49382;-25.924;28.194;2023-03-31T01:12:44;85178.93;;;20.06;36.95
40948;BME280;49382;-25.924;28.194;2023-03-31T01:15:09;85182.66;;;21.12;35.56
40948;BME280;49382;-25.924;28.194;2023-03-31T01:17:33;85179.76;;;21.09;35.27
40948;BME280;49382;-25.924;28.194;2023-03-31T01:20:08;85176.24;;;21.21;35.13
40948;BME280;49382;-25.924;28.194;2023-03-31T01:22:38;85169.04;;;21.07;35.49
40948;BME280;49382;-25.924;28.194;2023-03-31T01:29:54;85159.50;;;21.01;36.43
40948;BME280;49382;-25.924;28.194;2023-03-31T01:32:17;85153.89;;;20.36;37.89
40948;BME280;49382;-25.924;28.194;2023-03-31T01:41:57;85152.43;;;20.64;38.19
40948;BME280;49382;-25.924;28.194;2023-03-31T01:44:23;85154.56;;;20.97;38.40
40948;BME280;49382;-25.924;28.194;2023-03-31T01:46:49;85145.99;;;20.21;39.15
40948;BME280;49382;-25.924;28.194;2023-03-31T01:49:16;85153.10;;;20.17;38.67
40948;BME280;49382;-25.924;28.194;2023-03-31T01:51:38;85157.90;;;20.59;39.40
40948;BME280;49382;-25.924;28.194;2023-03-31T01:54:07;85159.85;;;20.54;39.81
40948;BME280;49382;-25.924;28.194;2023-03-31T01:56:31;85160.33;;;19.89;41.08
40948;BME280;49382;-25.924;28.194;2023-03-31T01:58:55;85162.13;;;20.42;40.67
40948;BME280;49382;-25.924;28.194;2023-03-31T02:01:21;85162.52;;;20.40;40.68
40948;BME280;49382;-25.924;28.194;2023-03-31T02:03:48;85163.47;;;20.01;41.20
40948;BME280;49382;-25.924;28.194;2023-03-31T02:06:13;85162.72;;;20.10;41.35
40948;BME280;49382;-25.924;28.194;2023-03-31T02:08:38;85158.93;;;20.25;41.23
40948;BME280;49382;-25.924;28.194;2023-03-31T02:11:02;85159.08;;;20.05;41.77
40948;BME280;49382;-25.924;28.194;2023-03-31T02:13:29;85161.05;;;20.30;42.04
40948;BME280;49382;-25.924;28.194;2023-03-31T02:15:56;85164.75;;;19.85;42.45
40948;BME280;49382;-25.924;28.194;2023-03-31T02:18:22;85167.87;;;19.55;42.99
40948;BME280;49382;-25.924;28.194;2023-03-31T02:20:48;85166.52;;;19.66;42.96
40948;BME280;49382;-25.924;28.194;2023-03-31T02:23:13;85161.87;;;19.49;43.25
40948;BME280;49382;-25.924;28.194;2023-03-31T02:25:41;85162.73;;;19.34;43.98
40948;BME280;49382;-25.924;28.194;2023-03-31T02:28:06;85169.07;;;17.94;46.65
40948;BME280;49382;-25.924;28.194;2023-03-31T02:30:32;85170.88;;;19.39;44.20
40948;BME280;49382;-25.924;28.194;2023-03-31T02:32:54;85167.37;;;19.59;43.53
40948;BME280;49382;-25.924;28.194;2023-03-31T02:35:20;85163.80;;;19.68;43.66
40948;BME280;49382;-25.924;28.194;2023-03-31T02:37:46;85157.37;;;19.41;44.11
40948;BME280;49382;-25.924;28.194;2023-03-31T02:40:17;85160.46;;;19.87;43.88
40948;BME280;49382;-25.924;28.194;2023-03-31T02:42:38;85161.89;;;18.78;45.56
40948;BME280;49382;-25.924;28.194;2023-03-31T02:45:05;85167.57;;;19.75;44.70
40948;BME280;49382;-25.924;28.194;2023-03-31T02:47:29;85178.71;;;19.75;44.28
40948;BME280;49382;-25.924;28.194;2023-03-31T02:49:57;85186.04;;;19.84;44.29
40948;BME280;49382;-25.924;28.194;2023-03-31T02:52:33;85183.89;;;19.95;44.32
40948;BME280;49382;-25.924;28.194;2023-03-31T02:59:47;85179.93;;;19.55;44.89
40948;BME280;49382;-25.924;28.194;2023-03-31T03:02:11;85175.39;;;19.88;44.43
40948;BME280;49382;-25.924;28.194;2023-03-31T03:04:40;85171.62;;;19.96;44.55
40948;BME280;49382;-25.924;28.194;2023-03-31T03:07:01;85166.41;;;20.09;44.50
40948;BME280;49382;-25.924;28.194;2023-03-31T03:09:33;85169.32;;;20.27;44.86
40948;BME280;49382;-25.924;28.194;2023-03-31T03:11:54;85163.49;;;18.47;48.00
40948;BME280;49382;-25.924;28.194;2023-03-31T03:14:21;85160.05;;;18.68;47.73
40948;BME280;49382;-25.924;28.194;2023-03-31T03:16:41;85157.30;;;19.98;45.39
40948;BME280;49382;-25.924;28.194;2023-03-31T03:19:06;85156.06;;;19.23;47.15
40948;BME280;49382;-25.924;28.194;2023-03-31T03:21:31;85157.35;;;19.79;46.08
40948;BME280;49382;-25.924;28.194;2023-03-31T03:23:57;85158.51;;;19.53;46.45
40948;BME280;49382;-25.924;28.194;2023-03-31T03:26:23;85159.42;;;20.29;44.80
40948;BME280;49382;-25.924;28.194;2023-03-31T03:28:48;85164.50;;;20.45;44.52
40948;BME280;49382;-25.924;28.194;2023-03-31T03:31:14;85170.57;;;19.70;45.67
40948;BME280;49382;-25.924;28.194;2023-03-31T03:33:40;85174.94;;;20.53;44.46
40948;BME280;49382;-25.924;28.194;2023-03-31T03:36:06;85176.07;;;20.66;43.99
40948;BME280;49382;-25.924;28.194;2023-03-31T03:38:31;85176.81;;;20.71;44.30
40948;BME280;49382;-25.924;28.194;2023-03-31T03:40:57;85181.75;;;20.69;44.46
40948;BME280;49382;-25.924;28.194;2023-03-31T03:43:23;85190.57;;;19.43;46.35
40948;BME280;49382;-25.924;28.194;2023-03-31T03:45:49;85191.48;;;20.17;45.44
40948;BME280;49382;-25.924;28.194;2023-03-31T03:48:15;85195.63;;;20.06;45.59
40948;BME280;49382;-25.924;28.194;2023-03-31T03:50:40;85188.66;;;19.53;46.49
40948;BME280;49382;-25.924;28.194;2023-03-31T03:53:06;85187.88;;;19.76;46.72
40948;BME280;49382;-25.924;28.194;2023-03-31T03:55:32;85189.18;;;19.05;48.03
40948;BME280;49382;-25.924;28.194;2023-03-31T03:57:58;85189.56;;;19.00;48.49
40948;BME280;49382;-25.924;28.194;2023-03-31T04:00:24;85195.35;;;19.55;47.36
40948;BME280;49382;-25.924;28.194;2023-03-31T04:02:49;85199.41;;;20.52;45.27
40948;BME280;49382;-25.924;28.194;2023-03-31T04:05:15;85205.44;;;20.22;46.27
40948;BME280;49382;-25.924;28.194;2023-03-31T04:07:41;85211.02;;;20.45;45.58
40948;BME280;49382;-25.924;28.194;2023-03-31T04:10:08;85227.80;;;19.89;46.69
40948;BME280;49382;-25.924;28.194;2023-03-31T04:12:34;85237.61;;;20.21;46.46
40948;BME280;49382;-25.924;28.194;2023-03-31T04:14:58;85239.54;;;20.27;46.41
40948;BME280;49382;-25.924;28.194;2023-03-31T04:17:24;85238.87;;;19.97;47.20
40948;BME280;49382;-25.924;28.194;2023-03-31T04:19:49;85240.47;;;19.58;47.80
40948;BME280;49382;-25.924;28.194;2023-03-31T04:22:14;85246.50;;;20.50;46.05
40948;BME280;49382;-25.924;28.194;2023-03-31T04:24:40;85251.18;;;20.36;46.32
40948;BME280;49382;-25.924;28.194;2023-03-31T04:27:06;85256.06;;;20.12;46.52
40948;BME280;49382;-25.924;28.194;2023-03-31T04:29:32;85257.97;;;18.89;48.59
40948;BME280;49382;-25.924;28.194;2023-03-31T04:31:58;85269.07;;;19.92;47.08
40948;BME280;49382;-25.924;28.194;2023-03-31T04:34:24;85287.15;;;20.49;45.53
40948;BME280;49382;-25.924;28.194;2023-03-31T04:36:50;85300.63;;;20.97;44.76
40948;BME280;49382;-25.924;28.194;2023-03-31T04:39:18;85303.74;;;20.51;46.26
40948;BME280;49382;-25.924;28.194;2023-03-31T04:41:41;85303.38;;;20.67;46.02
40948;BME280;49382;-25.924;28.194;2023-03-31T04:44:07;85298.61;;;20.09;46.93
40948;BME280;49382;-25.924;28.194;2023-03-31T04:46:33;85296.12;;;20.32;46.78
40948;BME280;49382;-25.924;28.194;2023-03-31T04:48:59;85297.65;;;19.65;48.51
40948;BME280;49382;-25.924;28.194;2023-03-31T04:51:24;85303.10;;;20.21;47.19
40948;BME280;49382;-25.924;28.194;2023-03-31T04:53:50;85304.60;;;19.28;49.35
40948;BME280;49382;-25.924;28.194;2023-03-31T04:56:16;85303.39;;;18.93;49.42
40948;BME280;49382;-25.924;28.194;2023-03-31T04:58:42;85308.87;;;18.89;50.47
40948;BME280;49382;-25.924;28.194;2023-03-31T05:01:08;85313.97;;;18.69;51.08
40948;BME280;49382;-25.924;28.194;2023-03-31T05:03:33;85316.84;;;20.03;48.31
40948;BME280;49382;-25.924;28.194;2023-03-31T05:05:59;85312.99;;;20.32;48.20
40948;BME280;49382;-25.924;28.194;2023-03-31T05:08:25;85311.69;;;19.12;50.63
40948;BME280;49382;-25.924;28.194;2023-03-31T05:10:51;85321.91;;;19.94;49.52
40948;BME280;49382;-25.924;28.194;2023-03-31T05:13:17;85325.17;;;18.65;52.12
40948;BME280;49382;-25.924;28.194;2023-03-31T05:15:43;85327.83;;;18.87;51.88
40948;BME280;49382;-25.924;28.194;2023-03-31T05:18:08;85338.86;;;20.05;49.82
40948;BME280;49382;-25.924;28.194;2023-03-31T05:20:34;85340.78;;;19.52;50.91
40948;BME280;49382;-25.924;28.194;2023-03-31T05:23:00;85322.13;;;19.49;51.10
40948;BME280;49382;-25.924;28.194;2023-03-31T05:25:26;85290.29;;;19.58;51.05
40948;BME280;49382;-25.924;28.194;2023-03-31T05:27:52;85235.03;;;18.06;54.59
40948;BME280;49382;-25.924;28.194;2023-03-31T05:30:17;85192.79;;;17.40;46.44
40948;BME280;49382;-25.924;28.194;2023-03-31T05:32:44;85201.04;;;17.01;49.83
40948;BME280;49382;-25.924;28.194;2023-03-31T05:35:09;85138.79;;;17.81;51.61
40948;BME280;49382;-25.924;28.194;2023-03-31T05:37:35;85126.01;;;16.67;53.82
40948;BME280;49382;-25.924;28.194;2023-03-31T05:40:01;85110.62;;;16.31;57.97
40948;BME280;49382;-25.924;28.194;2023-03-31T05:42:27;85107.67;;;15.82;59.66
40948;BME280;49382;-25.924;28.194;2023-03-31T05:44:52;85120.05;;;16.34;58.69
40948;BME280;49382;-25.924;28.194;2023-03-31T05:47:19;85137.42;;;16.68;57.71
40948;BME280;49382;-25.924;28.194;2023-03-31T05:49:44;85159.26;;;17.53;54.94
40948;BME280;49382;-25.924;28.194;2023-03-31T05:52:10;85162.80;;;17.26;54.26
40948;BME280;49382;-25.924;28.194;2023-03-31T05:54:36;85151.41;;;18.25;51.64
40948;BME280;49382;-25.924;28.194;2023-03-31T05:57:02;85171.43;;;17.67;53.57
40948;BME280;49382;-25.924;28.194;2023-03-31T05:59:27;85174.75;;;16.27;55.02
40948;BME280;49382;-25.924;28.194;2023-03-31T06:01:53;85182.27;;;16.77;55.61
40948;BME280;49382;-25.924;28.194;2023-03-31T06:04:19;85200.02;;;18.22;51.00
40948;BME280;49382;-25.924;28.194;2023-03-31T06:06:45;85213.60;;;19.90;47.00
40948;BME280;49382;-25.924;28.194;2023-03-31T06:09:11;85216.61;;;20.70;44.99
40948;BME280;49382;-25.924;28.194;2023-03-31T06:11:37;85228.51;;;20.34;45.84
40948;BME280;49382;-25.924;28.194;2023-03-31T06:14:02;85249.87;;;19.78;46.21
40948;BME280;49382;-25.924;28.194;2023-03-31T06:16:28;85260.91;;;18.46;48.09
40948;BME280;49382;-25.924;28.194;2023-03-31T06:18:54;85238.16;;;19.62;46.24
40948;BME280;49382;-25.924;28.194;2023-03-31T06:21:20;85212.74;;;19.93;45.07
40948;BME280;49382;-25.924;28.194;2023-03-31T06:23:46;85224.66;;;18.93;44.24
40948;BME280;49382;-25.924;28.194;2023-03-31T06:26:13;85260.89;;;19.36;43.72
40948;BME280;49382;-25.924;28.194;2023-03-31T06:28:37;85289.19;;;20.10;44.00
40948;BME280;49382;-25.924;28.194;2023-03-31T06:31:04;85290.42;;;20.81;42.23
40948;BME280;49382;-25.924;28.194;2023-03-31T06:33:29;85276.76;;;20.37;42.44
40948;BME280;49382;-25.924;28.194;2023-03-31T06:35:56;85301.13;;;20.18;42.05
40948;BME280;49382;-25.924;28.194;2023-03-31T06:38:20;85319.48;;;19.88;43.06
40948;BME280;49382;-25.924;28.194;2023-03-31T06:40:46;85305.63;;;19.61;43.27
40948;BME280;49382;-25.924;28.194;2023-03-31T06:43:12;85315.98;;;19.58;42.66
40948;BME280;49382;-25.924;28.194;2023-03-31T06:45:38;85326.11;;;20.27;41.35
40948;BME280;49382;-25.924;28.194;2023-03-31T06:48:04;85319.76;;;19.84;41.80
40948;BME280;49382;-25.924;28.194;2023-03-31T06:50:29;85320.96;;;20.13;42.27
40948;BME280;49382;-25.924;28.194;2023-03-31T06:52:55;85320.98;;;18.71;44.46
40948;BME280;49382;-25.924;28.194;2023-03-31T06:55:21;85326.06;;;19.19;43.74
40948;BME280;49382;-25.924;28.194;2023-03-31T06:57:47;85339.72;;;18.32;45.64
40948;BME280;49382;-25.924;28.194;2023-03-31T07:00:14;85338.73;;;19.13;44.66
40948;BME280;49382;-25.924;28.194;2023-03-31T07:02:39;85344.23;;;19.78;43.41
40948;BME280;49382;-25.924;28.194;2023-03-31T07:05:05;85350.01;;;19.06;44.36
40948;BME280;49382;-25.924;28.194;2023-03-31T07:07:31;85355.57;;;19.44;44.26
40948;BME280;49382;-25.924;28.194;2023-03-31T07:09:56;85353.93;;;19.70;44.69
40948;BME280;49382;-25.924;28.194;2023-03-31T07:12:22;85356.99;;;19.02;45.64
40948;BME280;49382;-25.924;28.194;2023-03-31T07:14:48;85359.98;;;18.85;45.43
40948;BME280;49382;-25.924;28.194;2023-03-31T07:17:13;85366.84;;;18.81;45.64
40948;BME280;49382;-25.924;28.194;2023-03-31T07:19:39;85374.74;;;19.05;44.49
40948;BME280;49382;-25.924;28.194;2023-03-31T07:22:05;85383.45;;;18.79;44.21
40948;BME280;49382;-25.924;28.194;2023-03-31T07:24:31;85381.00;;;18.42;44.69
40948;BME280;49382;-25.924;28.194;2023-03-31T07:26:57;85379.38;;;18.59;44.19
40948;BME280;49382;-25.924;28.194;2023-03-31T07:29:22;85376.09;;;18.09;44.37
40948;BME280;49382;-25.924;28.194;2023-03-31T07:31:48;85371.93;;;17.57;44.63
40948;BME280;49382;-25.924;28.194;2023-03-31T07:34:14;85370.28;;;17.68;44.94
40948;BME280;49382;-25.924;28.194;2023-03-31T07:36:40;85375.21;;;17.63;44.52
40948;BME280;49382;-25.924;28.194;2023-03-31T07:39:06;85379.95;;;17.15;45.70
40948;BME280;49382;-25.924;28.194;2023-03-31T07:41:32;85384.78;;;16.88;45.90
40948;BME280;49382;-25.924;28.194;2023-03-31T07:43:57;85394.72;;;17.02;45.87
40948;BME280;49382;-25.924;28.194;2023-03-31T07:46:25;85397.52;;;17.00;46.31
40948;BME280;49382;-25.924;28.194;2023-03-31T07:48:50;85388.35;;;16.65;46.93
40948;BME280;49382;-25.924;28.194;2023-03-31T07:51:17;85391.81;;;16.01;47.29
40948;BME280;49382;-25.924;28.194;2023-03-31T07:53:42;85394.82;;;17.45;46.07
40948;BME280;49382;-25.924;28.194;2023-03-31T07:56:07;85405.12;;;17.80;44.50
40948;BME280;49382;-25.924;28.194;2023-03-31T07:58:32;85403.88;;;16.75;46.52
40948;BME280;49382;-25.924;28.194;2023-03-31T08:00:58;85404.39;;;16.91;46.66
40948;BME280;49382;-25.924;28.194;2023-03-31T08:03:24;85407.66;;;16.40;48.09
40948;BME280;49382;-25.924;28.194;2023-03-31T08:05:51;85406.70;;;17.16;45.90
40948;BME280;49382;-25.924;28.194;2023-03-31T08:08:17;85405.28;;;17.90;44.82
40948;BME280;49382;-25.924;28.194;2023-03-31T08:10:41;85407.10;;;17.22;45.40
40948;BME280;49382;-25.924;28.194;2023-03-31T08:13:07;85406.29;;;17.63;44.93
40948;BME280;49382;-25.924;28.194;2023-03-31T08:15:33;85404.17;;;17.77;44.67
40948;BME280;49382;-25.924;28.194;2023-03-31T08:17:59;85406.28;;;17.89;44.65
40948;BME280;49382;-25.924;28.194;2023-03-31T08:20:25;85409.88;;;17.19;45.61
40948;BME280;49382;-25.924;28.194;2023-03-31T08:22:51;85409.69;;;17.92;44.62
40948;BME280;49382;-25.924;28.194;2023-03-31T08:25:17;85410.94;;;18.13;44.39
40948;BME280;49382;-25.924;28.194;2023-03-31T08:27:42;85410.06;;;17.69;45.35
40948;BME280;49382;-25.924;28.194;2023-03-31T08:30:10;85411.84;;;18.47;43.58
40948;BME280;49382;-25.924;28.194;2023-03-31T08:32:34;85410.26;;;18.05;44.39
40948;BME280;49382;-25.924;28.194;2023-03-31T08:35:00;85414.07;;;17.76;45.17
40948;BME280;49382;-25.924;28.194;2023-03-31T08:37:26;85417.82;;;18.10;44.29
40948;BME280;49382;-25.924;28.194;2023-03-31T08:39:52;85425.53;;;18.11;44.10
40948;BME280;49382;-25.924;28.194;2023-03-31T08:42:22;85435.23;;;17.83;45.25
40948;BME280;49382;-25.924;28.194;2023-03-31T08:44:47;85441.12;;;18.33;44.54
40948;BME280;49382;-25.924;28.194;2023-03-31T08:47:14;85440.40;;;18.58;44.19
40948;BME280;49382;-25.924;28.194;2023-03-31T08:49:40;85437.18;;;18.53;43.32
40948;BME280;49382;-25.924;28.194;2023-03-31T08:52:03;85427.88;;;18.28;43.61
40948;BME280;49382;-25.924;28.194;2023-03-31T08:54:31;85431.81;;;18.34;44.29
40948;BME280;49382;-25.924;28.194;2023-03-31T08:56:53;85424.40;;;17.17;43.92
40948;BME280;49382;-25.924;28.194;2023-03-31T08:59:25;85423.95;;;18.78;42.05
40948;BME280;49382;-25.924;28.194;2023-03-31T09:01:48;85422.98;;;17.13;44.58
40948;BME280;49382;-25.924;28.194;2023-03-31T09:04:21;85423.04;;;18.36;44.01
40948;BME280;49382;-25.924;28.194;2023-03-31T09:06:38;85420.39;;;18.24;43.45
40948;BME280;49382;-25.924;28.194;2023-03-31T09:09:03;85412.33;;;17.36;45.01
40948;BME280;49382;-25.924;28.194;2023-03-31T09:11:31;85411.29;;;17.68;44.45
40948;BME280;49382;-25.924;28.194;2023-03-31T09:16:24;85405.56;;;17.39;45.24
40948;BME280;49382;-25.924;28.194;2023-03-31T09:18:45;85405.71;;;17.90;44.36
40948;BME280;49382;-25.924;28.194;2023-03-31T09:21:15;85407.22;;;18.05;43.44
40948;BME280;49382;-25.924;28.194;2023-03-31T09:23:39;85405.67;;;18.85;43.14
40948;BME280;49382;-25.924;28.194;2023-03-31T09:26:03;85405.10;;;18.93;43.18
40948;BME280;49382;-25.924;28.194;2023-03-31T09:28:31;85401.78;;;17.66;44.33
40948;BME280;49382;-25.924;28.194;2023-03-31T09:30:54;85402.00;;;18.45;42.87
40948;BME280;49382;-25.924;28.194;2023-03-31T09:33:26;85402.36;;;19.05;43.41
40948;BME280;49382;-25.924;28.194;2023-03-31T09:35:46;85404.10;;;17.12;46.31
40948;BME280;49382;-25.924;28.194;2023-03-31T09:38:13;85399.21;;;17.52;45.34
40948;BME280;49382;-25.924;28.194;2023-03-31T09:40:37;85403.05;;;19.11;42.47
40948;BME280;49382;-25.924;28.194;2023-03-31T09:43:06;85403.09;;;18.26;44.10
40948;BME280;49382;-25.924;28.194;2023-03-31T09:45:30;85403.00;;;18.77;42.93
40948;BME280;49382;-25.924;28.194;2023-03-31T09:47:58;85400.32;;;18.69;43.13
40948;BME280;49382;-25.924;28.194;2023-03-31T09:50:22;85395.75;;;18.95;43.00
40948;BME280;49382;-25.924;28.194;2023-03-31T09:52:50;85396.46;;;18.40;44.68
40948;BME280;49382;-25.924;28.194;2023-03-31T09:55:20;85398.70;;;18.53;43.82
40948;BME280;49382;-25.924;28.194;2023-03-31T09:57:39;85399.11;;;17.74;44.34
40948;BME280;49382;-25.924;28.194;2023-03-31T10:00:12;85397.90;;;18.30;44.12
40948;BME280;49382;-25.924;28.194;2023-03-31T10:02:35;85401.52;;;17.61;44.90
40948;BME280;49382;-25.924;28.194;2023-03-31T10:04:56;85401.71;;;16.77;46.55
40948;BME280;49382;-25.924;28.194;2023-03-31T10:07:22;85403.28;;;17.80;44.86
40948;BME280;49382;-25.924;28.194;2023-03-31T10:09:47;85404.90;;;18.11;44.35
40948;BME280;49382;-25.924;28.194;2023-03-31T10:12:17;85405.28;;;17.97;44.84
40948;BME280;49382;-25.924;28.194;2023-03-31T10:14:43;85409.09;;;18.06;44.50
40948;BME280;49382;-25.924;28.194;2023-03-31T10:17:05;85413.06;;;17.43;45.53
40948;BME280;49382;-25.924;28.194;2023-03-31T10:19:32;85413.26;;;18.14;43.95
40948;BME280;49382;-25.924;28.194;2023-03-31T10:21:58;85412.35;;;17.82;45.31
40948;BME280;49382;-25.924;28.194;2023-03-31T10:24:22;85410.19;;;18.62;44.00
40948;BME280;49382;-25.924;28.194;2023-03-31T10:26:49;85409.63;;;18.48;44.41
40948;BME280;49382;-25.924;28.194;2023-03-31T10:29:19;85406.23;;;18.13;45.05
40948;BME280;49382;-25.924;28.194;2023-03-31T10:31:39;85407.82;;;18.85;43.92
40948;BME280;49382;-25.924;28.194;2023-03-31T10:34:06;85402.31;;;19.19;43.94
40948;BME280;49382;-25.924;28.194;2023-03-31T10:36:31;85403.41;;;18.33;44.56
40948;BME280;49382;-25.924;28.194;2023-03-31T10:38:57;85406.84;;;17.65;45.40
40948;BME280;49382;-25.924;28.194;2023-03-31T10:41:25;85407.26;;;17.85;44.53
40948;BME280;49382;-25.924;28.194;2023-03-31T10:43:50;85404.12;;;17.52;44.95
40948;BME280;49382;-25.924;28.194;2023-03-31T10:46:14;85410.21;;;18.49;43.85
40948;BME280;49382;-25.924;28.194;2023-03-31T10:48:41;85407.61;;;16.84;47.04
40948;BME280;49382;-25.924;28.194;2023-03-31T10:51:14;85409.19;;;17.57;46.64
40948;BME280;49382;-25.924;28.194;2023-03-31T10:53:39;85405.84;;;17.45;45.88
40948;BME280;49382;-25.924;28.194;2023-03-31T10:56:09;85403.22;;;18.82;43.42
40948;BME280;49382;-25.924;28.194;2023-03-31T10:58:35;85401.19;;;18.13;44.83
40948;BME280;49382;-25.924;28.194;2023-03-31T11:01:00;85394.25;;;19.11;43.46
40948;BME280;49382;-25.924;28.194;2023-03-31T11:03:32;85395.83;;;19.14;43.48
40948;BME280;49382;-25.924;28.194;2023-03-31T11:05:45;85402.39;;;18.88;44.01
40948;BME280;49382;-25.924;28.194;2023-03-31T11:08:16;85401.69;;;19.43;42.90
40948;BME280;49382;-25.924;28.194;2023-03-31T11:13:02;85393.70;;;18.75;44.53
40948;BME280;49382;-25.924;28.194;2023-03-31T11:15:29;85387.80;;;19.27;43.42
40948;BME280;49382;-25.924;28.194;2023-03-31T11:17:58;85397.18;;;18.57;44.01
40948;BME280;49382;-25.924;28.194;2023-03-31T11:20:23;85407.39;;;18.65;44.71
40948;BME280;49382;-25.924;28.194;2023-03-31T11:22:47;85416.14;;;18.50;44.96
40948;BME280;49382;-25.924;28.194;2023-03-31T11:25:18;85410.55;;;17.31;46.32
40948;BME280;49382;-25.924;28.194;2023-03-31T11:30:05;85397.77;;;18.62;44.26
40948;BME280;49382;-25.924;28.194;2023-03-31T11:32:34;85398.61;;;18.02;45.18
40948;BME280;49382;-25.924;28.194;2023-03-31T11:34:59;85398.69;;;18.16;45.12
40948;BME280;49382;-25.924;28.194;2023-03-31T11:39:53;85394.09;;;18.04;45.52
40948;BME280;49382;-25.924;28.194;2023-03-31T11:42:11;85386.67;;;17.65;46.16
40948;BME280;49382;-25.924;28.194;2023-03-31T11:44:40;85377.88;;;18.46;45.31
40948;BME280;49382;-25.924;28.194;2023-03-31T11:47:04;85373.00;;;18.18;45.83
40948;BME280;49382;-25.924;28.194;2023-03-31T11:49:28;85366.20;;;17.55;47.27
40948;BME280;49382;-25.924;28.194;2023-03-31T11:51:54;85366.01;;;17.00;47.79
40948;BME280;49382;-25.924;28.194;2023-03-31T11:54:23;85364.85;;;18.10;45.60
40948;BME280;49382;-25.924;28.194;2023-03-31T11:56:44;85355.68;;;17.94;46.28
40948;BME280;49382;-25.924;28.194;2023-03-31T11:59:13;85342.03;;;18.88;44.08
40948;BME280;49382;-25.924;28.194;2023-03-31T12:01:43;85348.65;;;18.71;44.26
40948;BME280;49382;-25.924;28.194;2023-03-31T12:04:04;85343.27;;;19.13;42.98
40948;BME280;49382;-25.924;28.194;2023-03-31T12:06:30;85342.91;;;18.13;45.43
40948;BME280;49382;-25.924;28.194;2023-03-31T12:09:03;85347.39;;;18.60;44.16
40948;BME280;49382;-25.924;28.194;2023-03-31T12:11:25;85345.53;;;18.01;45.63
40948;BME280;49382;-25.924;28.194;2023-03-31T12:13:48;85337.65;;;18.05;45.68
40948;BME280;49382;-25.924;28.194;2023-03-31T12:16:14;85339.04;;;17.47;45.46
40948;BME280;49382;-25.924;28.194;2023-03-31T12:18:40;85336.07;;;17.14;46.80
40948;BME280;49382;-25.924;28.194;2023-03-31T12:21:03;85334.68;;;17.02;47.48
40948;BME280;49382;-25.924;28.194;2023-03-31T12:23:29;85339.28;;;16.81;47.96
40948;BME280;49382;-25.924;28.194;2023-03-31T12:25:59;85342.19;;;17.19;47.73
40948;BME280;49382;-25.924;28.194;2023-03-31T12:28:19;85340.35;;;17.55;47.32
40948;BME280;49382;-25.924;28.194;2023-03-31T12:30:46;85338.52;;;18.32;45.37
40948;BME280;49382;-25.924;28.194;2023-03-31T12:33:17;85339.50;;;16.99;47.31
40948;BME280;49382;-25.924;28.194;2023-03-31T12:35:43;85340.87;;;18.07;45.23
40948;BME280;49382;-25.924;28.194;2023-03-31T12:38:16;85347.44;;;18.16;45.66
40948;BME280;49382;-25.924;28.194;2023-03-31T12:40:36;85349.47;;;18.76;44.14
40948;BME280;49382;-25.924;28.194;2023-03-31T12:43:10;85352.68;;;18.25;45.15
40948;BME280;49382;-25.924;28.194;2023-03-31T12:45:27;85352.66;;;18.62;44.84
40948;BME280;49382;-25.924;28.194;2023-03-31T12:47:54;85353.13;;;18.21;44.55
40948;BME280;49382;-25.924;28.194;2023-03-31T12:50:25;85346.16;;;17.28;46.93
40948;BME280;49382;-25.924;28.194;2023-03-31T12:52:41;85344.55;;;18.09;44.77
40948;BME280;49382;-25.924;28.194;2023-03-31T12:57:29;85353.40;;;18.25;44.21
40948;BME280;49382;-25.924;28.194;2023-03-31T13:02:24;85351.08;;;19.25;43.08
40948;BME280;49382;-25.924;28.194;2023-03-31T13:04:46;85357.17;;;20.02;41.92